createdAt,value
2022-09-29T00:01:38.000Z,33.25
2022-09-29T00:04:05.000Z,34.33
2022-09-29T00:06:30.000Z,40.67
2022-09-29T00:08:56.000Z,36.35
2022-09-29T00:11:23.000Z,34.1
2022-09-29T00:13:48.000Z,36.27
2022-09-29T00:16:13.000Z,31.77
2022-09-29T00:18:39.000Z,32.23
2022-09-29T00:21:05.000Z,33.1
2022-09-29T00:23:31.000Z,32.2
2022-09-29T00:25:56.000Z,31.82
2022-09-29T00:28:22.000Z,30.27
2022-09-29T00:30:48.000Z,28.15
2022-09-29T00:33:14.000Z,31.9
2022-09-29T00:35:40.000Z,28.75
2022-09-29T00:38:09.000Z,33.95
2022-09-29T00:40:32.000Z,33.88
2022-09-29T00:42:58.000Z,35.08
2022-09-29T00:45:24.000Z,37
2022-09-29T00:47:50.000Z,31.95
2022-09-29T00:50:16.000Z,31.87
2022-09-29T00:52:41.000Z,35.43
2022-09-29T00:55:08.000Z,35.88
2022-09-29T00:57:33.000Z,32.93
2022-09-29T00:59:58.000Z,36.48
2022-09-29T01:02:25.000Z,38.23
2022-09-29T01:04:50.000Z,32.1
2022-09-29T01:07:16.000Z,38.8
2022-09-29T01:09:42.000Z,35.33
2022-09-29T01:12:08.000Z,37.98
2022-09-29T01:14:34.000Z,40.65
2022-09-29T01:17:00.000Z,38.85
2022-09-29T01:19:25.000Z,37.27
2022-09-29T01:21:51.000Z,40.37
2022-09-29T01:24:17.000Z,39.75
2022-09-29T01:26:47.000Z,38.92
2022-09-29T01:29:08.000Z,41.02
2022-09-29T01:31:33.000Z,36.45
2022-09-29T01:34:00.000Z,42.13
2022-09-29T01:36:27.000Z,37.35
2022-09-29T01:38:53.000Z,37.73
2022-09-29T01:41:17.000Z,39.3
2022-09-29T01:43:43.000Z,39.9
2022-09-29T01:46:10.000Z,36.8
2022-09-29T01:48:36.000Z,30.52
2022-09-29T01:51:01.000Z,34.25
2022-09-29T01:53:26.000Z,33.37
2022-09-29T01:55:52.000Z,29.47
2022-09-29T01:58:18.000Z,30.88
2022-09-29T02:00:43.000Z,30.52
2022-09-29T02:03:09.000Z,31.23
2022-09-29T02:05:35.000Z,29.53
2022-09-29T02:08:00.000Z,31.15
2022-09-29T02:10:26.000Z,32.53
2022-09-29T02:12:52.000Z,37.9
2022-09-29T02:15:20.000Z,31.1
2022-09-29T02:17:43.000Z,32.83
2022-09-29T02:20:09.000Z,41.68
2022-09-29T02:22:35.000Z,42.15
2022-09-29T02:25:02.000Z,38.1
2022-09-29T02:27:27.000Z,39.83
2022-09-29T02:29:53.000Z,40.03
2022-09-29T02:32:19.000Z,37.33
2022-09-29T02:34:45.000Z,41.53
2022-09-29T02:37:10.000Z,40.12
2022-09-29T02:39:36.000Z,38.53
2022-09-29T02:42:02.000Z,38.77
2022-09-29T02:44:33.000Z,40.27
2022-09-29T02:46:58.000Z,37.78
2022-09-29T02:49:19.000Z,39.9
2022-09-29T02:51:45.000Z,41.08
2022-09-29T02:54:11.000Z,35.13
2022-09-29T02:56:37.000Z,39.83
2022-09-29T02:59:05.000Z,41.68
2022-09-29T03:01:33.000Z,38.07
2022-09-29T03:03:53.000Z,44.9
2022-09-29T03:06:19.000Z,40.35
2022-09-29T03:08:45.000Z,38.45
2022-09-29T03:11:10.000Z,38.9
2022-09-29T03:13:36.000Z,38.47
2022-09-29T03:16:06.000Z,38.45
2022-09-29T03:18:27.000Z,45.37
2022-09-29T03:20:53.000Z,43.2
2022-09-29T03:23:19.000Z,41.28
2022-09-29T03:25:46.000Z,40.17
2022-09-29T03:28:11.000Z,42.3
2022-09-29T03:30:38.000Z,43.47
2022-09-29T03:33:02.000Z,46.03
2022-09-29T03:35:28.000Z,43.25
2022-09-29T03:37:54.000Z,46.6
2022-09-29T03:40:24.000Z,40.85
2022-09-29T03:42:45.000Z,40.77
2022-09-29T03:45:11.000Z,40.63
2022-09-29T03:47:37.000Z,39.55
2022-09-29T03:50:03.000Z,42.85
2022-09-29T03:52:29.000Z,39.88
2022-09-29T03:54:54.000Z,37.97
2022-09-29T03:57:20.000Z,39.73
2022-09-29T03:59:46.000Z,37.95
2022-09-29T04:02:11.000Z,42.63
2022-09-29T04:04:38.000Z,42.6
2022-09-29T04:07:02.000Z,37.03
2022-09-29T04:09:30.000Z,39.27
2022-09-29T04:11:54.000Z,41.6
2022-09-29T04:14:20.000Z,55.8
2022-09-29T04:16:45.000Z,50.9
2022-09-29T04:19:12.000Z,52.43
2022-09-29T04:21:37.000Z,52.97
2022-09-29T04:24:02.000Z,59.13
2022-09-29T04:26:30.000Z,52.1
2022-09-29T04:28:54.000Z,52.27
2022-09-29T04:31:24.000Z,54.83
2022-09-29T04:33:50.000Z,55.78
2022-09-29T04:36:15.000Z,59.15
2022-09-29T04:38:41.000Z,58.98
2022-09-29T04:41:07.000Z,62.83
2022-09-29T04:43:33.000Z,56.63
2022-09-29T04:45:58.000Z,63.83
2022-09-29T04:48:24.000Z,58.47
2022-09-29T04:50:51.000Z,60.2
2022-09-29T04:53:16.000Z,56.37
2022-09-29T04:55:42.000Z,57.43
2022-09-29T04:58:07.000Z,60.4
2022-09-29T05:00:40.000Z,61.23
2022-09-29T05:02:59.000Z,56
2022-09-29T05:07:50.000Z,59.73
2022-09-29T05:10:17.000Z,56.5
2022-09-29T05:12:42.000Z,52.27
2022-09-29T05:15:08.000Z,58.77
2022-09-29T05:17:33.000Z,55.5
2022-09-29T05:19:59.000Z,51.92
2022-09-29T05:22:27.000Z,49.98
2022-09-29T05:24:51.000Z,53.25
2022-09-29T05:27:19.000Z,49.87
2022-09-29T05:29:43.000Z,48.33
2022-09-29T05:32:08.000Z,51.1
2022-09-29T05:34:34.000Z,45.78
2022-09-29T05:37:00.000Z,47.73
2022-09-29T05:39:27.000Z,46.27
2022-09-29T05:41:51.000Z,46.7
2022-09-29T05:44:20.000Z,44.4
2022-09-29T05:46:47.000Z,45.25
2022-09-29T05:49:15.000Z,49.03
2022-09-29T05:51:40.000Z,43.75
2022-09-29T05:54:07.000Z,42.4
2022-09-29T05:56:32.000Z,39.97
2022-09-29T05:58:59.000Z,38.9
2022-09-29T06:01:24.000Z,44.15
2022-09-29T06:03:51.000Z,43.1
2022-09-29T06:06:20.000Z,36.93
2022-09-29T06:08:45.000Z,36.3
2022-09-29T06:11:13.000Z,35.38
2022-09-29T06:13:42.000Z,35.83
2022-09-29T06:16:09.000Z,35.03
2022-09-29T06:18:38.000Z,37.38
2022-09-29T06:21:04.000Z,33.45
2022-09-29T06:23:29.000Z,35.53
2022-09-29T06:25:54.000Z,34.6
2022-09-29T06:28:20.000Z,31.27
2022-09-29T06:30:46.000Z,32.17
2022-09-29T06:35:38.000Z,28.55
2022-09-29T06:38:04.000Z,30.4
2022-09-29T06:40:30.000Z,28.57
2022-09-29T06:42:55.000Z,31.55
2022-09-29T06:47:47.000Z,27.77
2022-09-29T06:50:15.000Z,28.87
2022-09-29T06:52:39.000Z,32.08
2022-09-29T06:55:09.000Z,29.6
2022-09-29T06:57:33.000Z,32.48
2022-09-29T07:02:27.000Z,31.4
2022-09-29T07:04:53.000Z,29.73
2022-09-29T07:07:23.000Z,33.67
2022-09-29T07:09:49.000Z,44.3
2022-09-29T07:12:15.000Z,28.85
2022-09-29T07:14:41.000Z,35.38
2022-09-29T07:17:07.000Z,31.9
2022-09-29T07:19:33.000Z,36.03
2022-09-29T07:21:59.000Z,31.07
2022-09-29T07:24:26.000Z,33.33
2022-09-29T07:26:51.000Z,31.9
2022-09-29T07:29:16.000Z,31.62
2022-09-29T07:31:42.000Z,32.93
2022-09-29T07:34:08.000Z,31.37
2022-09-29T07:36:38.000Z,27.22
2022-09-29T07:39:07.000Z,30.72
2022-09-29T07:41:32.000Z,29.52
2022-09-29T07:43:57.000Z,35.25
2022-09-29T07:46:27.000Z,29.67
2022-09-29T07:48:53.000Z,29.52
2022-09-29T07:51:20.000Z,30.2
2022-09-29T07:53:46.000Z,33.67
2022-09-29T07:56:13.000Z,31.4
2022-09-29T07:58:40.000Z,35.2
2022-09-29T08:03:30.000Z,32.57
2022-09-29T08:05:56.000Z,34
2022-09-29T08:08:22.000Z,41.95
2022-09-29T08:10:48.000Z,36.5
2022-09-29T08:13:13.000Z,40.33
2022-09-29T08:15:40.000Z,37.23
2022-09-29T08:18:06.000Z,37.85
2022-09-29T08:20:32.000Z,38.48
2022-09-29T08:22:57.000Z,42.1
2022-09-29T08:25:22.000Z,44.23
2022-09-29T08:27:48.000Z,45.57
2022-09-29T08:30:19.000Z,47.4
2022-09-29T08:32:45.000Z,57.03
2022-09-29T08:35:10.000Z,49.55
2022-09-29T08:37:37.000Z,46.2
2022-09-29T08:40:04.000Z,51.08
2022-09-29T08:42:29.000Z,48.1
2022-09-29T08:48:07.000Z,46.05
2022-09-29T08:50:32.000Z,51.03
2022-09-29T08:52:58.000Z,48.9
2022-09-29T08:55:24.000Z,51.85
2022-09-29T08:57:50.000Z,56.75
2022-09-29T09:00:17.000Z,48.28
2022-09-29T09:02:41.000Z,52.63
2022-09-29T09:05:07.000Z,51.5
2022-09-29T09:07:33.000Z,49.5
2022-09-29T09:09:58.000Z,46.57
2022-09-29T09:12:24.000Z,42.78
2022-09-29T09:14:50.000Z,43.48
2022-09-29T09:17:17.000Z,43.92
2022-09-29T09:19:42.000Z,40.97
2022-09-29T09:22:08.000Z,41.6
2022-09-29T09:24:33.000Z,37.9
2022-09-29T09:26:59.000Z,41.77
2022-09-29T09:29:25.000Z,38.08
2022-09-29T09:31:52.000Z,42.08
2022-09-29T09:34:17.000Z,45.05
2022-09-29T09:36:44.000Z,48
2022-09-29T09:39:12.000Z,42.65
2022-09-29T09:41:40.000Z,50.6
2022-09-29T09:44:06.000Z,46.33
2022-09-29T09:46:32.000Z,40.15
2022-09-29T09:48:58.000Z,45.75
2022-09-29T09:51:24.000Z,46.77
2022-09-29T09:53:52.000Z,41.2
2022-09-29T09:56:24.000Z,46.05
2022-09-29T09:58:50.000Z,40.33
2022-09-29T10:27:14.000Z,50.85
2022-09-29T10:29:33.000Z,55.98
2022-09-29T10:31:59.000Z,53.08
2022-09-29T10:34:25.000Z,50.23
2022-09-29T10:39:21.000Z,44.58
2022-09-29T10:41:46.000Z,46.1
2022-09-29T10:44:13.000Z,45.52
2022-09-29T10:46:38.000Z,42.13
2022-09-29T10:49:03.000Z,41.08
2022-09-29T10:51:29.000Z,46.1
2022-09-29T10:53:54.000Z,47.17
2022-09-29T10:56:21.000Z,47.05
2022-09-29T10:58:48.000Z,46.73
2022-09-29T11:01:13.000Z,46.85
2022-09-29T11:03:39.000Z,49.05
2022-09-29T11:06:04.000Z,47.97
2022-09-29T11:08:30.000Z,45.3
2022-09-29T11:10:57.000Z,45.05
2022-09-29T11:13:24.000Z,46.6
2022-09-29T11:15:52.000Z,46.83
2022-09-29T11:18:19.000Z,45.5
2022-09-29T11:20:44.000Z,44.3
2022-09-29T11:23:12.000Z,41.3
2022-09-29T11:25:38.000Z,43.2
2022-09-29T11:28:06.000Z,48.58
2022-09-29T11:30:36.000Z,42.83
2022-09-29T11:32:58.000Z,43.65
2022-09-29T11:35:25.000Z,47.07
2022-09-29T11:37:52.000Z,42.9
2022-09-29T11:40:18.000Z,44.77
2022-09-29T11:42:43.000Z,37.9
2022-09-29T11:45:13.000Z,40.43
2022-09-29T11:47:37.000Z,36.88
2022-09-29T11:50:06.000Z,35.28
2022-09-29T11:52:32.000Z,40.8
2022-09-29T11:54:58.000Z,37.33
2022-09-29T11:57:24.000Z,38.8
2022-09-29T11:59:50.000Z,48.92
2022-09-29T12:04:50.000Z,40.85
2022-09-29T12:07:15.000Z,35.58
2022-09-29T12:09:42.000Z,35.98
2022-09-29T12:12:08.000Z,34.92
2022-09-29T12:14:35.000Z,34.38
2022-09-29T12:17:04.000Z,35.92
2022-09-29T12:19:27.000Z,39.5
2022-09-29T12:21:56.000Z,41.8
2022-09-29T12:24:23.000Z,33.23
2022-09-29T12:26:50.000Z,42.5
2022-09-29T12:29:17.000Z,38.08
2022-09-29T12:31:43.000Z,40.43
2022-09-29T12:34:10.000Z,45.92
2022-09-29T12:36:37.000Z,52.27
2022-09-29T12:41:43.000Z,52.35
2022-09-29T12:44:10.000Z,49.7
2022-09-29T12:46:37.000Z,51.37
2022-09-29T12:49:04.000Z,47.6
2022-09-29T12:51:38.000Z,47.45
2022-09-29T12:54:12.000Z,53.53
2022-09-29T12:56:38.000Z,61.13
2022-09-29T12:59:05.000Z,56.53
2022-09-29T13:01:35.000Z,65.17
2022-09-29T13:04:01.000Z,67.1
2022-09-29T13:06:27.000Z,65.33
2022-09-29T13:08:57.000Z,65.4
2022-09-29T13:11:21.000Z,67.08
2022-09-29T13:13:46.000Z,64.7
2022-09-29T13:16:13.000Z,66.5
2022-09-29T13:18:38.000Z,63.73
2022-09-29T13:21:07.000Z,68.45
2022-09-29T13:23:34.000Z,64.4
2022-09-29T13:26:00.000Z,53.67
2022-09-29T13:28:28.000Z,59.03
2022-09-29T13:30:54.000Z,59.83
2022-09-29T13:33:20.000Z,57.57
2022-09-29T13:35:47.000Z,59.27
2022-09-29T13:38:13.000Z,69.37
2022-09-29T13:40:40.000Z,64.6
2022-09-29T13:43:11.000Z,59.73
2022-09-29T13:45:38.000Z,63.17
2022-09-29T13:48:04.000Z,66.1
2022-09-29T13:50:31.000Z,64.37
2022-09-29T13:52:59.000Z,58.45
2022-09-29T13:55:25.000Z,64.55
2022-09-29T13:57:51.000Z,53.58
2022-09-29T14:00:25.000Z,58.35
2022-09-29T14:02:48.000Z,56.33
2022-09-29T14:05:15.000Z,61.1
2022-09-29T14:07:43.000Z,64.4
2022-09-29T14:10:13.000Z,63.63
2022-09-29T14:12:41.000Z,65.23
2022-09-29T14:15:08.000Z,67.95
2022-09-29T14:17:36.000Z,65.97
2022-09-29T14:19:59.000Z,57.05
2022-09-29T14:22:25.000Z,59.3
2022-09-29T14:24:54.000Z,65.22
2022-09-29T14:27:20.000Z,59.77
2022-09-29T14:29:50.000Z,59.4
2022-09-29T14:32:15.000Z,67.3
2022-09-29T14:34:43.000Z,71.53
2022-09-29T14:37:09.000Z,72.25
2022-09-29T14:42:05.000Z,74.6
2022-09-29T14:44:29.000Z,72.58
2022-09-29T14:46:55.000Z,72.42
2022-09-29T14:49:25.000Z,71.8
2022-09-29T14:51:54.000Z,72.72
2022-09-29T14:54:19.000Z,73.67
2022-09-29T14:56:48.000Z,74.97
2022-09-29T14:59:15.000Z,71.02
2022-09-29T15:01:42.000Z,75.28
2022-09-29T15:04:09.000Z,76.62
2022-09-29T15:06:36.000Z,71
2022-09-29T15:09:02.000Z,67.37
2022-09-29T15:11:27.000Z,67.97
2022-09-29T15:13:56.000Z,71.73
2022-09-29T15:16:22.000Z,71.5
2022-09-29T15:18:48.000Z,66.02
2022-09-29T15:21:15.000Z,70.28
2022-09-29T15:23:42.000Z,67.2
2022-09-29T15:28:38.000Z,67.08
2022-09-29T15:31:04.000Z,61.63
2022-09-29T15:33:30.000Z,59.9
2022-09-29T15:35:55.000Z,62.05
2022-09-29T15:38:21.000Z,57.7
2022-09-29T15:40:47.000Z,56.15
2022-09-29T15:43:13.000Z,64.22
2022-09-29T15:45:39.000Z,57.33
2022-09-29T15:48:07.000Z,61.97
2022-09-29T15:50:31.000Z,65.1
2022-09-29T15:52:56.000Z,61.87
2022-09-29T15:55:21.000Z,67.9
2022-09-29T15:57:49.000Z,61.68
2022-09-29T16:00:23.000Z,62.55
2022-09-29T16:02:42.000Z,61.37
2022-09-29T16:05:08.000Z,58.9
2022-09-29T16:07:35.000Z,58.03
2022-09-29T16:10:02.000Z,63.45
2022-09-29T16:12:27.000Z,58.3
2022-09-29T16:14:55.000Z,57.35
2022-09-29T16:17:19.000Z,57.27
2022-09-29T16:19:44.000Z,54.77
2022-09-29T16:22:10.000Z,51.75
2022-09-29T16:24:37.000Z,50.48
2022-09-29T16:27:02.000Z,55.2
2022-09-29T16:29:28.000Z,51.97
2022-09-29T16:31:53.000Z,59.27
2022-09-29T16:34:20.000Z,51.02
2022-09-29T16:36:45.000Z,52.7
2022-09-29T16:39:12.000Z,54.07
2022-09-29T16:41:38.000Z,55.48
2022-09-29T16:44:05.000Z,52.33
2022-09-29T16:46:29.000Z,55.3
2022-09-29T16:48:54.000Z,55.77
2022-09-29T16:51:21.000Z,49.57
2022-09-29T16:53:46.000Z,55.05
2022-09-29T16:56:14.000Z,49.67
2022-09-29T16:58:37.000Z,54.37
2022-09-29T17:01:08.000Z,55.4
2022-09-29T17:03:29.000Z,51.25
2022-09-29T17:05:55.000Z,48.17
2022-09-29T17:08:20.000Z,50.35
2022-09-29T17:10:46.000Z,51.5
2022-09-29T17:13:12.000Z,54.07
2022-09-29T17:15:38.000Z,49.33
2022-09-29T17:18:06.000Z,44.8
2022-09-29T17:20:33.000Z,50.73
2022-09-29T17:23:02.000Z,49.55
2022-09-29T17:25:22.000Z,49.18
2022-09-29T17:27:48.000Z,46.35
2022-09-29T17:30:15.000Z,48.1
2022-09-29T17:32:39.000Z,49.43
2022-09-29T17:35:06.000Z,49.9
2022-09-29T17:37:30.000Z,44.5
2022-09-29T17:39:58.000Z,45.45
2022-09-29T17:42:22.000Z,49.18
2022-09-29T17:44:48.000Z,47.43
2022-09-29T17:47:14.000Z,42.27
2022-09-29T17:49:40.000Z,45.5
2022-09-29T17:52:06.000Z,43.17
2022-09-29T17:54:31.000Z,38.05
2022-09-29T17:56:56.000Z,39.15
2022-09-29T17:59:22.000Z,39.1
2022-09-29T18:01:48.000Z,39
2022-09-29T18:04:14.000Z,39.23
2022-09-29T18:06:42.000Z,38.67
2022-09-29T18:09:06.000Z,42.4
2022-09-29T18:11:32.000Z,37.23
2022-09-29T18:13:57.000Z,39.27
2022-09-29T18:16:24.000Z,40.7
2022-09-29T18:18:50.000Z,37.63
2022-09-29T18:21:18.000Z,37
2022-09-29T18:23:42.000Z,45.3
2022-09-29T18:26:08.000Z,39.2
2022-09-29T18:28:34.000Z,40.05
2022-09-29T18:30:59.000Z,39.98
2022-09-29T18:33:25.000Z,42.67
2022-09-29T18:35:51.000Z,42.45
2022-09-29T18:38:18.000Z,40.45
2022-09-29T18:40:45.000Z,39.73
2022-09-29T18:43:09.000Z,46.3
2022-09-29T18:45:35.000Z,42.1
2022-09-29T18:48:18.000Z,42.15
2022-09-29T18:51:09.000Z,43.17
2022-09-29T18:52:57.000Z,45.27
2022-09-29T18:55:19.000Z,43.17
2022-09-29T18:57:45.000Z,44.42
2022-09-29T19:00:15.000Z,49.3
2022-09-29T19:02:36.000Z,55.17
2022-09-29T19:05:02.000Z,56.27
2022-09-29T19:07:29.000Z,60.57
2022-09-29T19:09:53.000Z,60.57
2022-09-29T19:12:20.000Z,56.9
2022-09-29T19:14:46.000Z,56.88
2022-09-29T19:17:11.000Z,58.53
2022-09-29T19:19:38.000Z,63.03
2022-09-29T19:22:04.000Z,64.17
2022-09-29T19:24:31.000Z,62.9
2022-09-29T19:26:55.000Z,64.37
2022-09-29T19:29:23.000Z,65.78
2022-09-29T19:31:47.000Z,66.07
2022-09-29T19:34:13.000Z,67.55
2022-09-29T19:36:39.000Z,68.4
2022-09-29T19:39:06.000Z,61.93
2022-09-29T19:41:32.000Z,58.1
2022-09-29T19:43:57.000Z,60.2
2022-09-29T19:46:25.000Z,56.9
2022-09-29T19:48:49.000Z,52.5
2022-09-29T19:51:15.000Z,51.13
2022-09-29T19:53:41.000Z,47.17
2022-09-29T19:56:07.000Z,45.5
2022-09-29T19:58:32.000Z,50.03
2022-09-29T20:00:58.000Z,45.2
2022-09-29T20:03:24.000Z,43.3
2022-09-29T20:05:49.000Z,40.17
2022-09-29T20:08:16.000Z,40.08
2022-09-29T20:10:42.000Z,39.83
2022-09-29T20:13:07.000Z,39.27
2022-09-29T20:15:34.000Z,39.33
2022-09-29T20:18:00.000Z,38.88
2022-09-29T20:20:28.000Z,38.6
2022-09-29T20:22:52.000Z,36.23
2022-09-29T20:25:17.000Z,37.1
2022-09-29T20:27:44.000Z,30.57
2022-09-29T20:30:14.000Z,30.62
2022-09-29T20:32:35.000Z,32.17
2022-09-29T20:35:00.000Z,32.13
2022-09-29T20:37:26.000Z,29.3
2022-09-29T20:39:52.000Z,34.33
2022-09-29T20:42:19.000Z,27.93
2022-09-29T20:44:45.000Z,27.45
2022-09-29T20:47:11.000Z,32.28
2022-09-29T20:49:36.000Z,29.07
2022-09-29T20:52:03.000Z,24.6
2022-09-29T20:54:28.000Z,27.3
2022-09-29T20:56:54.000Z,27.33
2022-09-29T20:59:20.000Z,24.97
2022-09-29T21:01:46.000Z,27
2022-09-29T21:04:12.000Z,25.75
2022-09-29T21:09:15.000Z,25.2
2022-09-29T21:11:41.000Z,29.82
2022-09-29T21:14:09.000Z,32.53
2022-09-29T21:16:34.000Z,32.23
2022-09-29T21:18:59.000Z,30.13
2022-09-29T21:21:24.000Z,30.13
2022-09-29T21:23:50.000Z,27.35
2022-09-29T21:26:18.000Z,25.32
2022-09-29T21:28:44.000Z,29.48
2022-09-29T21:31:08.000Z,26.27
2022-09-29T21:33:35.000Z,27.45
2022-09-29T21:36:00.000Z,24.45
2022-09-29T21:38:27.000Z,26.17
2022-09-29T21:40:52.000Z,22.75
2022-09-29T21:43:19.000Z,23.15
2022-09-29T21:45:45.000Z,28.4
2022-09-29T21:48:11.000Z,24.63
2022-09-29T21:50:37.000Z,27.53
2022-09-29T21:53:03.000Z,25.68
2022-09-29T21:55:28.000Z,24.87
2022-09-29T21:57:53.000Z,25.92
2022-09-29T22:00:25.000Z,27.55
2022-09-29T22:02:45.000Z,30.77
2022-09-29T22:05:10.000Z,24.97
2022-09-29T22:07:37.000Z,26.8
2022-09-29T22:10:05.000Z,27.25
2022-09-29T22:12:48.000Z,26.68
2022-09-29T22:15:14.000Z,27.9
2022-09-29T22:17:39.000Z,27.05
2022-09-29T22:20:08.000Z,30.87
2022-09-29T22:22:33.000Z,33
2022-09-29T22:24:57.000Z,26.37
2022-09-29T22:27:22.000Z,28.3
2022-09-29T22:29:49.000Z,28.2
2022-09-29T22:32:14.000Z,27.47
2022-09-29T22:34:40.000Z,31.83
2022-09-29T22:37:07.000Z,28
2022-09-29T22:39:32.000Z,33.23
2022-09-29T22:41:57.000Z,31.43
2022-09-29T22:44:25.000Z,28.73
2022-09-29T22:46:50.000Z,29.5
2022-09-29T22:49:17.000Z,29.87
2022-09-29T22:51:42.000Z,29.8
2022-09-29T22:54:09.000Z,27.05
2022-09-29T22:56:34.000Z,28.23
2022-09-29T22:59:00.000Z,29.12
2022-09-29T23:01:26.000Z,27.98
2022-09-29T23:03:51.000Z,33.58
2022-09-29T23:06:17.000Z,26.77
2022-09-29T23:08:44.000Z,26.37
2022-09-29T23:11:10.000Z,27.83
2022-09-29T23:13:35.000Z,32.63
2022-09-29T23:16:02.000Z,33.9
2022-09-29T23:18:28.000Z,30.02
2022-09-29T23:20:54.000Z,31.77
2022-09-29T23:23:19.000Z,32
2022-09-29T23:25:44.000Z,27.5
2022-09-29T23:28:10.000Z,31.1
2022-09-29T23:30:36.000Z,30.52
2022-09-29T23:33:02.000Z,30.15
2022-09-29T23:35:28.000Z,27.7
2022-09-29T23:37:54.000Z,29.35
2022-09-29T23:40:20.000Z,27.05
2022-09-29T23:42:47.000Z,29.95
2022-09-29T23:45:14.000Z,27.9
2022-09-29T23:47:39.000Z,31.05
2022-09-29T23:50:06.000Z,32.42
2022-09-29T23:52:32.000Z,34.15
2022-09-29T23:54:58.000Z,31.5
2022-09-29T23:57:23.000Z,29.13
2022-09-29T23:59:49.000Z,29.4
